Time;durP1;ratioP1;P1;durP2;ratioP2;P2;SDS_P1;SDS_P2;PMS_P1;PMS_P2;Temp;Humidity;BMP_temperature;BMP_pressure;BME280_temperature;BME280_humidity;BME280_pressure;Samples;Min_cycle;Max_cycle;Signal;HPM_P1;HPM_P2
2023/09/23 00:01:21;;;;;;;4.65;1.98;;;28.50;55.40;;;;;;5013667;28;20034;-67
2023/09/23 00:03:47;;;;;;;6.25;2.00;;;28.60;55.40;;;;;;5014037;28;20390;-66
2023/09/23 00:06:13;;;;;;;1.95;1.73;;;28.60;55.40;;;;;;5014791;28;20037;-66
2023/09/23 00:08:39;;;;;;;3.50;1.77;;;28.60;55.50;;;;;;5014574;28;20160;-67
2023/09/23 00:11:08;;;;;;;3.75;2.40;;;28.70;55.50;;;;;;5013011;28;20042;-66
2023/09/23 00:13:35;;;;;;;2.97;1.98;;;28.60;55.50;;;;;;5014614;28;20078;-67
2023/09/23 00:16:16;;;;;;;5.43;2.40;;;28.60;55.50;;;;;;5014685;28;20046;-67
2023/09/23 00:18:45;;;;;;;2.53;1.83;;;28.60;55.60;;;;;;5014941;28;20438;-66
2023/09/23 00:21:14;;;;;;;8.15;1.88;;;28.80;55.60;;;;;;5009838;28;20440;-66
2023/09/23 00:23:40;;;;;;;2.83;2.08;;;28.60;55.60;;;;;;5013163;28;20042;-67
2023/09/23 00:26:11;;;;;;;2.28;2.08;;;28.60;55.60;;;;;;5012176;28;20424;-66
2023/09/23 00:28:37;;;;;;;3.28;2.05;;;28.70;55.60;;;;;;5012985;28;20150;-65
2023/09/23 00:31:12;;;;;;;1.60;1.50;;;28.60;55.60;;;;;;5010090;28;20109;-67
2023/09/23 00:33:39;;;;;;;2.55;2.20;;;28.70;55.60;;;;;;5014504;28;20053;-66
2023/09/23 00:36:07;;;;;;;2.05;1.88;;;28.60;55.60;;;;;;5014199;28;20458;-66
2023/09/23 00:38:33;;;;;;;3.40;2.13;;;28.70;55.60;;;;;;5012332;28;20049;-66
2023/09/23 00:40:59;;;;;;;5.18;1.92;;;28.60;55.60;;;;;;5009312;28;20433;-66
2023/09/23 00:43:25;;;;;;;3.10;2.00;;;28.50;55.60;;;;;;5013830;28;20050;-66
2023/09/23 00:45:58;;;;;;;3.17;2.10;;;28.50;55.60;;;;;;5011638;28;20062;-66
2023/09/23 00:48:25;;;;;;;2.80;2.20;;;28.50;55.60;;;;;;5011609;28;20395;-67
2023/09/23 00:50:53;;;;;;;4.68;2.33;;;28.50;55.60;;;;;;4999837;28;20130;-66
2023/09/23 00:53:22;;;;;;;3.58;1.80;;;28.50;55.60;;;;;;5010764;28;20446;-66
2023/09/23 00:55:52;;;;;;;2.72;1.70;;;28.50;55.60;;;;;;5011949;28;20034;-66
2023/09/23 00:58:21;;;;;;;1.80;1.70;;;28.50;55.60;;;;;;5014001;28;20502;-67
2023/09/23 01:00:49;;;;;;;2.30;1.83;;;28.50;55.70;;;;;;5011681;28;20093;-66
2023/09/23 01:03:16;;;;;;;3.33;1.75;;;28.60;55.80;;;;;;5012572;28;20037;-67
2023/09/23 01:05:44;;;;;;;3.42;1.95;;;28.50;55.80;;;;;;5012719;28;20119;-67
2023/09/23 01:08:19;;;;;;;2.13;1.80;;;28.60;55.70;;;;;;5013881;28;20026;-66
2023/09/23 01:10:49;;;;;;;4.07;2.15;;;28.50;55.70;;;;;;4995426;28;20045;-67
2023/09/23 01:13:19;;;;;;;1.83;1.60;;;28.50;55.80;;;;;;5012115;28;20065;-67
2023/09/23 01:15:46;;;;;;;2.20;1.73;;;28.60;55.80;;;;;;5011745;28;20033;-67
2023/09/23 01:18:15;;;;;;;1.80;1.48;;;28.50;55.90;;;;;;5012168;28;20083;-67
2023/09/23 01:20:48;;;;;;;2.15;1.65;;;28.50;55.90;;;;;;5012987;28;20050;-67
2023/09/23 01:23:14;;;;;;;;;;;28.60;55.90;;;;;;5013845;28;20046;-65
2023/09/23 01:25:40;;;;;;;2.45;1.60;;;28.60;55.90;;;;;;5012945;28;19963;-67
2023/09/23 01:28:11;;;;;;;3.67;1.83;;;28.60;56.00;;;;;;5011774;28;20044;-66
2023/09/23 01:30:41;;;;;;;3.20;2.17;;;28.60;56.00;;;;;;5012084;28;20028;-66
2023/09/23 01:33:08;;;;;;;2.72;1.95;;;28.50;56.00;;;;;;5011882;28;20116;-66
2023/09/23 01:35:35;;;;;;;3.05;1.80;;;28.50;56.00;;;;;;5011907;28;20034;-67
2023/09/23 01:38:02;;;;;;;2.78;1.60;;;28.60;56.00;;;;;;5013230;28;20152;-66
2023/09/23 01:40:35;;;;;;;4.88;1.60;;;28.50;56.10;;;;;;5011597;28;20026;-67
2023/09/23 01:43:04;;;;;;;3.72;2.10;;;28.60;56.00;;;;;;5012140;28;20153;-67
2023/09/23 01:45:30;;;;;;;2.53;1.50;;;28.50;56.00;;;;;;4994321;28;20104;-67
2023/09/23 01:47:56;;;;;;;2.63;2.08;;;28.60;56.00;;;;;;5010231;28;20132;-66
2023/09/23 01:50:27;;;;;;;4.28;2.15;;;28.60;56.00;;;;;;5010825;28;20030;-67
2023/09/23 01:52:59;;;;;;;3.13;1.90;;;28.50;56.00;;;;;;5011931;28;20045;-68
2023/09/23 01:55:25;;;;;;;2.13;1.90;;;28.50;56.00;;;;;;5010323;28;20065;-67
2023/09/23 01:57:51;;;;;;;2.30;2.00;;;28.50;56.00;;;;;;5011671;28;20092;-67
2023/09/23 02:00:18;;;;;;;4.82;2.28;;;28.50;56.00;;;;;;5010695;28;20034;-68
2023/09/23 02:02:44;;;;;;;5.18;2.30;;;28.40;56.00;;;;;;5012805;28;20030;-67
2023/09/23 02:05:11;;;;;;;3.28;2.20;;;28.40;56.10;;;;;;5011458;28;20088;-67
2023/09/23 02:07:39;;;;;;;4.65;2.35;;;28.40;56.10;;;;;;5011537;28;20042;-68
2023/09/23 02:10:09;;;;;;;2.50;2.08;;;28.40;56.20;;;;;;5005803;28;20018;-67
2023/09/23 02:12:35;;;;;;;4.38;1.90;;;28.60;56.20;;;;;;5012043;28;20102;-65
2023/09/23 02:15:01;;;;;;;3.15;2.05;;;28.40;56.20;;;;;;5011900;28;20026;-67
2023/09/23 02:17:27;;;;;;;3.20;1.88;;;28.40;56.20;;;;;;5012113;28;20136;-68
2023/09/23 02:19:53;;;;;;;2.88;2.03;;;28.40;56.20;;;;;;5011590;28;20042;-67
2023/09/23 02:22:20;;;;;;;2.22;2.00;;;28.40;56.30;;;;;;5009852;28;20061;-67
2023/09/23 02:24:47;;;;;;;1.92;1.67;;;28.50;56.30;;;;;;5010198;28;20092;-67
2023/09/23 02:27:14;;;;;;;2.65;2.15;;;28.40;56.30;;;;;;5012017;28;20041;-68
2023/09/23 02:29:41;;;;;;;7.03;2.00;;;28.50;56.30;;;;;;5011468;28;20022;-68
2023/09/23 02:32:07;;;;;;;5.40;2.22;;;28.60;56.20;;;;;;5010106;28;20056;-67
2023/09/23 02:34:34;;;;;;;2.67;1.95;;;28.40;56.30;;;;;;5011662;28;20557;-67
2023/09/23 02:37:00;;;;;;;2.55;1.92;;;28.50;56.30;;;;;;5012153;28;20034;-67
2023/09/23 02:39:26;;;;;;;2.15;1.50;;;28.50;56.30;;;;;;5010828;28;20400;-67
2023/09/23 02:41:52;;;;;;;5.45;2.25;;;28.60;56.30;;;;;;5009647;28;20066;-67
2023/09/23 02:44:19;;;;;;;2.63;2.30;;;28.50;56.30;;;;;;5010976;28;20490;-67
2023/09/23 02:46:49;;;;;;;2.40;2.20;;;28.40;56.20;;;;;;5010176;28;20239;-67
2023/09/23 02:49:16;;;;;;;2.60;2.10;;;28.40;56.20;;;;;;5010764;28;20030;-67
2023/09/23 02:51:44;;;;;;;4.10;2.53;;;28.50;56.20;;;;;;5011024;28;20112;-67
2023/09/23 02:54:13;;;;;;;2.50;2.13;;;28.50;56.20;;;;;;5010992;28;20049;-68
2023/09/23 02:56:40;;;;;;;5.15;2.38;;;28.40;56.20;;;;;;5009626;28;20069;-67
2023/09/23 02:59:15;;;;;;;2.95;2.50;;;28.40;56.30;;;;;;5010050;28;20605;-67
2023/09/23 03:01:48;;;;;;;5.25;2.70;;;28.50;56.20;;;;;;5009157;28;20045;-67
2023/09/23 03:04:23;;;;;;;4.68;2.58;;;28.30;56.20;;;;;;5011271;28;20029;-67
2023/09/23 03:07:00;;;;;;;5.15;3.03;;;28.40;56.20;;;;;;5010799;28;20030;-67
2023/09/23 03:09:32;;;;;;;5.88;2.67;;;28.40;56.20;;;;;;5011481;28;20025;-67
2023/09/23 03:12:00;;;;;;;4.97;2.38;;;28.40;56.40;;;;;;5009013;28;20029;-67
2023/09/23 03:14:36;;;;;;;2.60;2.40;;;28.40;56.40;;;;;;5011750;28;20035;-67
2023/09/23 03:17:03;;;;;;;3.08;2.47;;;28.30;56.40;;;;;;5011363;28;20037;-67
2023/09/23 03:19:32;;;;;;;2.83;2.60;;;28.30;56.40;;;;;;5010353;28;20470;-68
2023/09/23 03:21:59;;;;;;;3.42;2.65;;;28.30;56.50;;;;;;5009672;28;20104;-67
2023/09/23 03:24:28;;;;;;;4.47;2.63;;;28.40;56.50;;;;;;5011486;28;20061;-67
2023/09/23 03:27:00;;;;;;;3.75;2.80;;;28.30;56.50;;;;;;5006127;28;20049;-67
2023/09/23 03:29:28;;;;;;;4.70;3.17;;;28.40;56.40;;;;;;5009806;28;20442;-67
2023/09/23 03:31:58;;;;;;;7.07;3.35;;;28.30;56.50;;;;;;5009731;28;20038;-67
2023/09/23 03:34:26;;;;;;;3.78;2.92;;;28.40;56.50;;;;;;5009127;28;20076;-68
2023/09/23 03:36:53;;;;;;;7.68;2.80;;;28.40;56.50;;;;;;5010049;28;20030;-67
2023/09/23 03:39:20;;;;;;;4.18;2.00;;;28.40;56.40;;;;;;5010230;28;20045;-67
2023/09/23 03:41:46;;;;;;;7.60;2.88;;;28.40;56.50;;;;;;5007546;28;20038;-67
2023/09/23 03:44:16;;;;;;;4.65;2.72;;;28.30;56.40;;;;;;5010999;28;20065;-67
2023/09/23 03:46:46;;;;;;;3.95;2.83;;;28.40;56.40;;;;;;5011522;28;20041;-67
2023/09/23 03:49:12;;;;;;;5.38;2.60;;;28.40;56.40;;;;;;5011816;28;20044;-67
2023/09/23 03:51:39;;;;;;;5.88;3.30;;;28.40;56.40;;;;;;5020729;28;20086;-67
2023/09/23 03:54:06;;;;;;;3.83;2.60;;;28.30;56.40;;;;;;5023996;28;20045;-67
2023/09/23 03:56:33;;;;;;;4.53;3.00;;;28.50;56.40;;;;;;5027746;28;20129;-67
2023/09/23 03:59:06;;;;;;;3.13;2.63;;;28.40;56.40;;;;;;5010266;28;20046;-67
2023/09/23 04:01:33;;;;;;;5.28;2.92;;;28.30;56.40;;;;;;5028126;28;20045;-66
2023/09/23 04:04:01;;;;;;;6.68;3.20;;;28.30;56.40;;;;;;5028457;28;20041;-67
2023/09/23 04:06:28;;;;;;;3.45;3.05;;;28.20;56.40;;;;;;5011934;28;20046;-68
2023/09/23 04:08:55;;;;;;;4.28;3.22;;;28.30;56.40;;;;;;5026440;28;20057;-66
2023/09/23 04:11:21;;;;;;;7.13;3.25;;;28.30;56.40;;;;;;5027396;28;20037;-67
2023/09/23 04:13:47;;;;;;;4.47;2.88;;;28.30;56.50;;;;;;5011376;28;20477;-66
2023/09/23 04:16:14;;;;;;;5.22;3.08;;;28.30;56.60;;;;;;5028712;28;20053;-67
2023/09/23 04:18:40;;;;;;;7.18;3.42;;;28.30;56.50;;;;;;5031152;28;20375;-68
2023/09/23 04:21:08;;;;;;;6.30;3.15;;;28.30;56.50;;;;;;5031658;28;20164;-68
2023/09/23 04:23:35;;;;;;;5.03;3.38;;;28.40;56.50;;;;;;5031727;28;20085;-66
2023/09/23 04:26:03;;;;;;;3.78;3.30;;;28.30;56.50;;;;;;5031183;28;20030;-68
2023/09/23 04:28:30;;;;;;;4.03;3.17;;;28.30;56.50;;;;;;5027244;28;20077;-68
2023/09/23 04:30:57;;;;;;;5.85;3.53;;;28.30;56.50;;;;;;5012675;28;20414;-66
2023/09/23 04:33:27;;;;;;;11.38;3.40;;;28.30;56.50;;;;;;5014313;28;20030;-67
2023/09/23 04:35:57;;;;;;;4.93;3.72;;;28.50;56.60;;;;;;5014300;28;20049;-67
2023/09/23 04:38:24;;;;;;;6.95;3.80;;;28.30;56.60;;;;;;5014499;28;20029;-67
2023/09/23 04:40:51;;;;;;;4.60;3.22;;;28.30;56.60;;;;;;5013675;28;20370;-67
2023/09/23 04:43:19;;;;;;;4.82;3.10;;;28.30;56.60;;;;;;5013491;28;20045;-67
2023/09/23 04:45:45;;;;;;;6.22;3.35;;;28.30;56.50;;;;;;5014085;28;20034;-67
2023/09/23 04:48:12;;;;;;;6.80;3.15;;;28.30;56.50;;;;;;5014168;28;20125;-67
2023/09/23 04:50:39;;;;;;;3.95;3.22;;;28.40;56.50;;;;;;5013920;28;20084;-67
2023/09/23 04:53:07;;;;;;;4.97;2.83;;;28.30;56.50;;;;;;5012012;28;20034;-66
2023/09/23 04:55:33;;;;;;;4.20;3.38;;;28.20;56.50;;;;;;4998017;28;20037;-67
2023/09/23 04:57:59;;;;;;;8.60;3.00;;;28.30;56.50;;;;;;5009591;28;20048;-68
2023/09/23 05:00:26;;;;;;;5.45;3.25;;;28.30;56.50;;;;;;5013580;28;20066;-68
2023/09/23 05:02:53;;;;;;;4.18;3.10;;;28.30;56.50;;;;;;5012798;28;20389;-67
2023/09/23 05:05:20;;;;;;;8.50;3.70;;;28.20;56.50;;;;;;5013846;28;20030;-67
2023/09/23 05:07:47;;;;;;;5.18;3.42;;;28.30;56.50;;;;;;5013351;28;20458;-68
2023/09/23 05:10:13;;;;;;;3.15;2.85;;;28.20;56.50;;;;;;5013719;28;20124;-67
2023/09/23 05:12:40;;;;;;;6.32;3.20;;;28.10;56.60;;;;;;5011158;28;20065;-66
2023/09/23 05:15:10;;;;;;;6.03;3.67;;;28.10;56.60;;;;;;5013041;28;20038;-68
2023/09/23 05:17:39;;;;;;;8.82;3.60;;;28.10;56.60;;;;;;5005482;28;20478;-67
2023/09/23 05:20:25;;;;;;;4.20;2.72;;;28.10;56.60;;;;;;5013633;28;20034;-68
2023/09/23 05:22:52;;;;;;;10.18;3.53;;;28.30;56.60;;;;;;5011868;28;20061;-67
2023/09/23 05:25:18;;;;;;;6.88;4.05;;;28.30;56.60;;;;;;5013453;28;20379;-68
2023/09/23 05:27:44;;;;;;;6.95;3.90;;;28.20;56.60;;;;;;5012079;28;20036;-67
2023/09/23 05:30:11;;;;;;;6.53;3.38;;;28.30;56.60;;;;;;5012597;28;20034;-67
2023/09/23 05:32:37;;;;;;;6.20;3.67;;;28.30;56.70;;;;;;5013410;28;20458;-67
2023/09/23 05:35:11;;;;;;;5.30;3.90;;;28.40;56.60;;;;;;5012772;28;20038;-67
2023/09/23 05:37:38;;;;;;;4.95;3.75;;;28.30;56.60;;;;;;5013026;28;20034;-67
2023/09/23 05:42:52;;;;;;;5.78;3.92;;;28.30;56.60;;;;;;5011687;28;20072;-67
2023/09/23 05:45:20;;;;;;;5.32;3.60;;;28.30;56.60;;;;;;5012499;28;20125;-67
2023/09/23 05:47:46;;;;;;;7.22;3.33;;;28.30;56.50;;;;;;5010330;28;20060;-66
2023/09/23 05:50:15;;;;;;;7.85;3.63;;;28.20;56.50;;;;;;5012605;28;20030;-68
2023/09/23 05:52:41;;;;;;;5.00;3.45;;;28.30;56.50;;;;;;5012604;28;20034;-69
2023/09/23 05:55:08;;;;;;;1.00;0.90;;;28.30;56.40;;;;;;5012961;28;20525;-68
2023/09/23 05:57:40;;;;;;;1.00;0.70;;;28.30;57.70;;;;;;5012025;28;20052;-67
2023/09/23 06:00:08;;;;;;;1.08;0.80;;;28.20;57.00;;;;;;5012364;28;20163;-67
2023/09/23 06:02:34;;;;;;;0.80;0.80;;;28.40;56.40;;;;;;5009358;28;20101;-68
2023/09/23 06:05:01;;;;;;;0.95;0.90;;;28.40;56.40;;;;;;5010972;28;20045;-66
2023/09/23 06:07:33;;;;;;;1.30;1.20;;;28.50;57.80;;;;;;5011601;28;20041;-69
2023/09/23 06:09:59;;;;;;;3.88;1.52;;;28.80;58.90;;;;;;5011502;28;20080;-69
2023/09/23 06:12:29;;;;;;;3.13;1.95;;;29.00;60.00;;;;;;5010886;28;20393;-68
2023/09/23 06:15:00;;;;;;;4.80;2.20;;;28.90;56.20;;;;;;5006984;28;20064;-68
2023/09/23 06:17:28;;;;;;;4.82;2.10;;;28.90;55.80;;;;;;5011280;28;20038;-68
2023/09/23 06:19:56;;;;;;;6.47;2.97;;;28.90;55.10;;;;;;5010578;28;20025;-68
2023/09/23 06:22:22;;;;;;;3.65;2.33;;;29.00;55.50;;;;;;5011566;28;20044;-68
2023/09/23 06:24:51;;;;;;;2.80;2.60;;;28.90;54.50;;;;;;5011546;28;20038;-68
2023/09/23 06:27:18;;;;;;;6.25;3.08;;;28.80;54.00;;;;;;5005124;28;20037;-69
2023/09/23 06:29:44;;;;;;;4.45;3.50;;;28.90;54.20;;;;;;5012003;28;20041;-69
2023/09/23 06:32:10;;;;;;;6.85;2.92;;;29.00;54.50;;;;;;5012232;28;20109;-69
2023/09/23 06:34:36;;;;;;;4.47;2.80;;;28.90;53.70;;;;;;5012073;28;20030;-69
2023/09/23 06:37:03;;;;;;;5.13;3.65;;;28.90;53.70;;;;;;5012146;28;20498;-69
2023/09/23 06:39:29;;;;;;;4.60;3.78;;;29.00;54.50;;;;;;5010619;28;20040;-71
2023/09/23 06:41:55;;;;;;;4.43;3.28;;;28.90;53.60;;;;;;5009748;28;20033;-70
2023/09/23 06:44:21;;;;;;;3.78;3.22;;;28.90;53.60;;;;;;5012037;28;20042;-71
2023/09/23 06:46:49;;;;;;;8.98;3.17;;;28.90;53.60;;;;;;5011539;28;20026;-69
2023/09/23 06:49:16;;;;;;;7.10;3.90;;;28.80;53.90;;;;;;5010995;28;20034;-69
2023/09/23 06:51:43;;;;;;;5.25;3.50;;;28.70;54.40;;;;;;5009525;28;20121;-70
2023/09/23 06:54:09;;;;;;;6.25;3.88;;;28.80;54.20;;;;;;5011782;28;20401;-68
2023/09/23 06:56:36;;;;;;;7.15;4.45;;;28.70;54.10;;;;;;5004631;28;20048;-70
2023/09/23 06:59:02;;;;;;;3.88;3.45;;;28.70;54.40;;;;;;5011158;28;20117;-70
2023/09/23 07:01:28;;;;;;;3.78;3.42;;;28.70;54.40;;;;;;5011041;28;20471;-69
2023/09/23 07:03:54;;;;;;;4.85;3.50;;;28.60;54.20;;;;;;5008943;28;20040;-70
2023/09/23 07:06:20;;;;;;;9.98;3.72;;;28.60;54.10;;;;;;5011724;28;20037;-69
2023/09/23 07:08:46;;;;;;;3.90;3.00;;;28.60;53.60;;;;;;5012136;28;20045;-69
2023/09/23 07:11:13;;;;;;;4.57;3.72;;;28.60;53.60;;;;;;5011800;28;20037;-69
2023/09/23 07:13:39;;;;;;;5.47;3.70;;;28.60;54.60;;;;;;5010542;28;20053;-68
2023/09/23 07:16:05;;;;;;;3.80;3.10;;;28.70;55.00;;;;;;5011683;28;20065;-69
2023/09/23 07:18:32;;;;;;;4.05;3.20;;;28.60;54.40;;;;;;5010464;28;20085;-69
2023/09/23 07:20:58;;;;;;;5.05;3.42;;;28.80;54.30;;;;;;5011305;28;20038;-71
2023/09/23 07:23:24;;;;;;;5.65;3.20;;;28.60;54.30;;;;;;5011995;28;20046;-71
2023/09/23 07:25:52;;;;;;;4.65;3.15;;;28.70;54.40;;;;;;5008226;28;20065;-70
2023/09/23 07:28:18;;;;;;;5.72;3.63;;;28.60;54.30;;;;;;5009931;28;20454;-73
2023/09/23 07:30:44;;;;;;;4.38;2.78;;;28.70;54.40;;;;;;5010552;28;20044;-70
2023/09/23 07:33:10;;;;;;;6.20;3.40;;;28.80;54.40;;;;;;4994330;28;20109;-70
2023/09/23 07:35:36;;;;;;;6.45;3.92;;;28.60;54.50;;;;;;5011647;28;20518;-71
2023/09/23 07:38:02;;;;;;;3.97;3.25;;;28.60;54.30;;;;;;5011675;28;20389;-70
2023/09/23 07:40:30;;;;;;;4.90;3.40;;;28.80;54.20;;;;;;5010431;28;20030;-70
2023/09/23 07:42:56;;;;;;;8.73;3.63;;;28.70;54.10;;;;;;5010090;28;20184;-68
2023/09/23 07:45:22;;;;;;;6.97;2.92;;;28.60;54.20;;;;;;5011456;28;20030;-70
2023/09/23 07:47:48;;;;;;;5.90;3.15;;;28.70;54.20;;;;;;5011243;28;20420;-69
2023/09/23 07:50:15;;;;;;;5.00;3.50;;;28.70;54.10;;;;;;5010758;28;20029;-69
2023/09/23 07:52:41;;;;;;;3.45;3.15;;;28.60;54.10;;;;;;5001727;28;20026;-69
2023/09/23 07:55:08;;;;;;;7.45;3.33;;;28.70;54.00;;;;;;4995942;28;20053;-70
2023/09/23 07:57:34;;;;;;;3.33;3.00;;;28.70;54.00;;;;;;5007915;28;20026;-66
2023/09/23 08:00:00;;;;;;;5.55;3.83;;;28.70;53.90;;;;;;5013100;28;20160;-72
2023/09/23 08:02:27;;;;;;;4.40;3.70;;;28.70;53.60;;;;;;5015380;28;20128;-71
2023/09/23 08:04:53;;;;;;;4.13;3.40;;;28.60;53.60;;;;;;5013083;28;20056;-70
2023/09/23 08:07:19;;;;;;;6.78;3.78;;;28.80;53.60;;;;;;5015453;28;20067;-70
2023/09/23 08:09:45;;;;;;;6.90;4.05;;;28.60;53.60;;;;;;4997562;28;20481;-70
2023/09/23 08:12:11;;;;;;;6.07;3.85;;;28.70;53.60;;;;;;5013444;28;20165;-68
2023/09/23 08:14:37;;;;;;;4.07;3.47;;;28.80;53.70;;;;;;5014695;28;20036;-70
2023/09/23 08:17:03;;;;;;;4.32;3.17;;;28.70;53.40;;;;;;5013892;28;20437;-69
2023/09/23 08:19:29;;;;;;;9.30;4.30;;;28.60;53.60;;;;;;5014806;28;20030;-67
2023/09/23 08:21:55;;;;;;;4.88;3.67;;;28.60;53.60;;;;;;5014907;28;20054;-69
2023/09/23 08:24:21;;;;;;;7.15;3.53;;;28.70;53.70;;;;;;5031895;28;20057;-68
2023/09/23 08:26:47;;;;;;;3.30;3.00;;;28.70;53.70;;;;;;5031724;28;20064;-69
2023/09/23 08:29:14;;;;;;;3.85;2.92;;;28.70;53.70;;;;;;5032047;28;20045;-68
2023/09/23 08:31:40;;;;;;;4.22;3.38;;;28.70;53.70;;;;;;5032250;28;20065;-68
2023/09/23 08:34:09;;;;;;;6.20;4.03;;;28.60;53.80;;;;;;5032012;28;20048;-68
2023/09/23 08:36:38;;;;;;;4.57;3.88;;;28.70;53.80;;;;;;5031901;28;20029;-68
2023/09/23 08:39:09;;;;;;;5.05;4.03;;;28.70;53.80;;;;;;5031689;28;20496;-68
2023/09/23 08:41:36;;;;;;;4.90;3.95;;;28.70;53.80;;;;;;5029093;28;20042;-68
2023/09/23 08:44:07;;;;;;;4.85;3.25;;;28.60;53.90;;;;;;5030165;28;20192;-68
2023/09/23 08:46:33;;;;;;;5.53;2.80;;;28.60;53.80;;;;;;5031856;28;20037;-68
2023/09/23 08:49:00;;;;;;;3.50;3.20;;;28.70;53.80;;;;;;5030849;28;20030;-69
2023/09/23 08:51:27;;;;;;;4.70;3.05;;;28.70;53.90;;;;;;5031293;28;20071;-68
2023/09/23 08:53:54;;;;;;;4.80;3.53;;;28.70;53.90;;;;;;5032036;28;20144;-68
2023/09/23 08:56:21;;;;;;;5.53;3.67;;;28.70;53.80;;;;;;5014752;28;20033;-69
2023/09/23 08:58:50;;;;;;;3.42;3.13;;;28.60;53.90;;;;;;5013771;28;20060;-69
2023/09/23 09:01:19;;;;;;;4.32;3.40;;;28.70;53.90;;;;;;5012692;28;20030;-68
2023/09/23 09:03:47;;;;;;;3.63;3.00;;;28.60;53.90;;;;;;5012482;28;20041;-67
2023/09/23 09:06:19;;;;;;;4.57;2.50;;;28.60;53.90;;;;;;5013864;28;20461;-68
2023/09/23 09:08:45;;;;;;;;;;;28.70;53.50;;;;;;4992449;28;20482;-67
2023/09/23 09:11:19;;;;;;;2.92;2.60;;;28.60;53.60;;;;;;4991148;28;19917;-67
2023/09/23 09:13:45;;;;;;;6.15;2.97;;;28.60;53.60;;;;;;4991901;28;20046;-67
2023/09/23 09:16:11;;;;;;;4.13;3.42;;;28.60;53.70;;;;;;4991970;28;20928;-67
2023/09/23 09:18:38;;;;;;;3.00;2.75;;;28.70;53.70;;;;;;4991535;28;20391;-67
2023/09/23 09:21:08;;;;;;;3.20;2.83;;;28.60;53.80;;;;;;4989616;28;20101;-67
2023/09/23 09:23:38;;;;;;;2.90;2.60;;;28.70;53.80;;;;;;4991654;28;20549;-67
2023/09/23 09:26:04;;;;;;;3.75;3.42;;;28.60;53.90;;;;;;4990352;28;20035;-67
2023/09/23 09:28:30;;;;;;;5.97;3.38;;;28.60;53.90;;;;;;4991633;28;20043;-67
2023/09/23 09:30:57;;;;;;;3.00;2.70;;;28.70;53.90;;;;;;4992338;28;20038;-67
2023/09/23 09:33:29;;;;;;;6.50;3.42;;;28.70;53.90;;;;;;4991455;28;20069;-67
2023/09/23 09:35:56;;;;;;;3.83;2.70;;;28.60;53.90;;;;;;4990389;28;20069;-69
2023/09/23 09:38:24;;;;;;;4.20;3.20;;;28.70;53.90;;;;;;4991374;28;20039;-69
2023/09/23 09:40:51;;;;;;;3.47;2.60;;;28.70;54.00;;;;;;5012363;28;20049;-67
2023/09/23 09:43:20;;;;;;;5.53;3.33;;;28.60;54.00;;;;;;5012331;28;20041;-68
2023/09/23 09:45:47;;;;;;;4.07;2.92;;;28.70;54.00;;;;;;5013433;28;20052;-68
2023/09/23 09:48:14;;;;;;;4.25;3.17;;;28.60;54.00;;;;;;5013235;28;20580;-67
2023/09/23 09:50:40;;;;;;;3.78;3.00;;;28.70;54.00;;;;;;5027708;28;20837;-67
2023/09/23 09:53:06;;;;;;;6.65;3.17;;;28.60;54.00;;;;;;5011646;28;20042;-67
2023/09/23 09:55:33;;;;;;;3.60;2.80;;;28.70;54.00;;;;;;5013032;28;20045;-67
2023/09/23 09:58:01;;;;;;;3.35;2.97;;;28.60;54.00;;;;;;5012555;28;20083;-67
2023/09/23 10:00:35;;;;;;;3.50;2.60;;;28.80;54.00;;;;;;5013282;28;20042;-67
2023/09/23 10:03:08;;;;;;;3.80;2.97;;;28.70;54.10;;;;;;5010960;28;20033;-67
2023/09/23 10:05:35;;;;;;;;;;;28.70;54.10;;;;;;4993541;28;20046;-67
2023/09/23 10:08:19;;;;;;;3.47;2.78;;;28.70;54.10;;;;;;4995549;28;19917;-68
2023/09/23 10:10:47;;;;;;;7.15;3.58;;;28.80;54.00;;;;;;5013183;28;20084;-67
2023/09/23 10:13:18;;;;;;;3.35;3.05;;;28.60;54.00;;;;;;5011448;28;20045;-67
2023/09/23 10:15:44;;;;;;;3.33;3.00;;;28.60;54.00;;;;;;5011072;28;20033;-68
2023/09/23 10:18:18;;;;;;;3.45;2.60;;;28.70;54.10;;;;;;5011830;28;20029;-67
2023/09/23 10:20:50;;;;;;;6.53;3.10;;;28.70;54.10;;;;;;5012128;28;20038;-67
2023/09/23 10:23:19;;;;;;;2.78;2.40;;;28.60;54.00;;;;;;5012576;28;20061;-67
2023/09/23 10:25:47;;;;;;;3.42;3.00;;;28.70;54.10;;;;;;5011008;28;20046;-67
2023/09/23 10:28:22;;;;;;;45.70;8.02;;;28.60;56.20;;;;;;5011520;28;20033;-69
2023/09/23 10:31:03;;;;;;;4.88;4.10;;;28.90;55.10;;;;;;5012410;28;20068;-69
2023/09/23 10:33:31;;;;;;;6.18;3.42;;;29.00;57.70;;;;;;5012739;28;20045;-69
2023/09/23 10:36:04;;;;;;;4.95;3.92;;;29.10;54.50;;;;;;5011891;28;20052;-68
2023/09/23 10:38:38;;;;;;;3.53;3.10;;;29.00;53.10;;;;;;5012733;28;20036;-67
2023/09/23 10:41:04;;;;;;;3.90;3.30;;;28.90;52.00;;;;;;5011453;28;20113;-67
2023/09/23 10:43:34;;;;;;;3.30;3.00;;;29.00;52.30;;;;;;5010928;28;20474;-68
2023/09/23 10:46:05;;;;;;;5.32;2.95;;;29.10;52.60;;;;;;5011941;28;20041;-68
2023/09/23 10:48:31;;;;;;;3.35;3.05;;;29.00;52.70;;;;;;5011806;28;20049;-67
2023/09/23 10:51:01;;;;;;;7.20;2.70;;;28.90;51.80;;;;;;5011820;28;20026;-68
2023/09/23 10:53:28;;;;;;;25.92;6.50;;;29.00;54.90;;;;;;5012030;28;20083;-69
2023/09/23 10:55:55;;;;;;;59.92;14.63;;;29.20;55.10;;;;;;5010729;28;20088;-67
2023/09/23 10:58:21;;;;;;;11.38;4.30;;;29.40;55.10;;;;;;5010491;28;20044;-68
2023/09/23 11:00:48;;;;;;;6.40;4.60;;;29.30;54.80;;;;;;5011619;28;20061;-68
2023/09/23 11:03:19;;;;;;;4.35;2.92;;;29.40;54.50;;;;;;5011250;28;20026;-69
2023/09/23 11:05:47;;;;;;;3.88;2.67;;;29.40;53.70;;;;;;5011947;28;20124;-68
2023/09/23 11:08:15;;;;;;;3.30;2.58;;;29.40;53.60;;;;;;5011673;28;20025;-68
2023/09/23 11:10:43;;;;;;;7.05;3.00;;;29.50;53.70;;;;;;5012407;28;20029;-69
2023/09/23 11:13:11;;;;;;;3.92;2.78;;;29.60;55.90;;;;;;5011247;28;20041;-70
2023/09/23 11:15:43;;;;;;;3.72;3.33;;;29.60;55.40;;;;;;5011979;28;20038;-68
2023/09/23 11:18:19;;;;;;;5.50;3.35;;;29.70;55.80;;;;;;5012287;28;20041;-69
2023/09/23 11:20:46;;;;;;;5.28;3.80;;;29.60;56.60;;;;;;5010892;28;20338;-68
2023/09/23 11:23:13;;;;;;;4.68;3.33;;;29.70;53.70;;;;;;5006463;28;20520;-68
2023/09/23 11:25:44;;;;;;;4.65;3.50;;;29.80;52.30;;;;;;5013152;28;20053;-70
2023/09/23 11:28:25;;;;;;;7.13;3.38;;;29.60;52.10;;;;;;5016800;28;20040;-69
2023/09/23 11:30:53;;;;;;;3.25;2.58;;;29.60;51.20;;;;;;5015607;28;20104;-68
2023/09/23 11:33:20;;;;;;;8.10;2.80;;;29.50;52.60;;;;;;5018219;28;20386;-67
2023/09/23 11:35:46;;;;;;;3.92;2.33;;;29.60;53.20;;;;;;5018034;28;20109;-68
2023/09/23 11:38:13;;;;;;;5.80;2.60;;;29.60;53.50;;;;;;5016176;28;20793;-69
2023/09/23 11:40:40;;;;;;;2.85;2.30;;;29.70;53.70;;;;;;5017450;28;20030;-68
2023/09/23 11:43:06;;;;;;;9.00;4.93;;;29.60;53.90;;;;;;5017586;28;20044;-68
2023/09/23 11:45:33;;;;;;;7.32;3.53;;;29.70;56.60;;;;;;5017963;28;20034;-68
2023/09/23 11:48:00;;;;;;;8.13;4.03;;;29.90;57.00;;;;;;5017024;28;20025;-69
2023/09/23 11:50:26;;;;;;;6.22;2.90;;;30.00;57.30;;;;;;5018250;28;20040;-69
2023/09/23 11:52:52;;;;;;;6.10;3.20;;;29.90;53.20;;;;;;5018199;28;20156;-69
2023/09/23 11:55:19;;;;;;;5.05;3.00;;;29.70;54.30;;;;;;5016393;28;20160;-69
2023/09/23 11:57:45;;;;;;;4.63;3.35;;;29.70;54.10;;;;;;5016746;28;20148;-68
2023/09/23 12:00:11;;;;;;;4.82;2.92;;;29.70;54.10;;;;;;5017603;28;20485;-69
2023/09/23 12:02:41;;;;;;;4.47;2.55;;;29.80;54.00;;;;;;5012479;28;20386;-68
2023/09/23 12:05:12;;;;;;;6.72;3.05;;;29.60;53.90;;;;;;5016584;28;20485;-69
2023/09/23 12:07:38;;;;;;;4.18;2.88;;;29.70;54.00;;;;;;5016867;28;20488;-69
2023/09/23 12:10:05;;;;;;;3.97;2.53;;;29.80;54.00;;;;;;5000529;28;20026;-69
2023/09/23 12:12:32;;;;;;;6.93;2.50;;;29.80;53.70;;;;;;5008257;28;20018;-69
2023/09/23 12:14:58;;;;;;;5.75;2.92;;;29.80;53.80;;;;;;5017447;28;20034;-69
2023/09/23 12:17:24;;;;;;;3.85;2.90;;;29.70;53.90;;;;;;5017758;28;20046;-69
2023/09/23 12:19:50;;;;;;;3.58;2.85;;;29.80;53.90;;;;;;5016502;28;20026;-70
2023/09/23 12:22:17;;;;;;;3.90;2.55;;;29.70;54.00;;;;;;5015702;28;20057;-70
2023/09/23 12:24:43;;;;;;;3.63;2.45;;;29.70;54.10;;;;;;5017194;28;20030;-70
2023/09/23 12:27:11;;;;;;;3.55;2.47;;;29.80;54.20;;;;;;5015585;28;20086;-69
2023/09/23 12:29:38;;;;;;;5.85;2.40;;;29.80;54.20;;;;;;5017594;28;20041;-71
2023/09/23 12:32:05;;;;;;;4.60;2.80;;;29.70;54.20;;;;;;5017456;28;20103;-70
2023/09/23 12:34:31;;;;;;;5.13;2.92;;;29.80;54.10;;;;;;5002456;28;20106;-69
2023/09/23 12:36:58;;;;;;;4.05;2.67;;;29.70;54.20;;;;;;4996411;28;20027;-71
2023/09/23 12:39:24;;;;;;;3.13;2.60;;;29.60;54.40;;;;;;5004021;28;20030;-69
2023/09/23 12:41:51;;;;;;;5.45;2.53;;;29.60;54.50;;;;;;5013447;28;20057;-73
2023/09/23 12:44:18;;;;;;;4.38;2.40;;;29.70;54.70;;;;;;5014342;28;20045;-68
2023/09/23 12:46:44;;;;;;;6.95;2.75;;;29.70;54.80;;;;;;5013639;28;20030;-69
2023/09/23 12:49:11;;;;;;;3.67;2.55;;;29.60;54.80;;;;;;5014018;28;20129;-70
2023/09/23 12:51:41;;;;;;;3.15;2.50;;;29.70;54.70;;;;;;5012283;28;20034;-70
2023/09/23 12:54:08;;;;;;;5.60;2.85;;;29.60;54.80;;;;;;5012713;28;20030;-70